Biddeford Pool, Maine
Current Conditions -  °F | °C
As of 5:51 AM on Sunday 21 Dec 2014 (Local Time) from KPWM Reporting Station
Broken Clouds Broken Clouds  
Wind Chill: 14°   Ceiling: 900
Heat Index: 22°   Visibility: 10mi
Dew Point: 18°   Wind: 6mph
Humidity: 85%   Direction: 360°N
Pressure: 30.35"   Gusts: NA
Location:  43.44°N, 70.34°W
Report Text: KPWM 211051Z 36005KT 10SM BKN009 BKN100 M06/M08 A3035 RMK AO2 SLP279 T10561078
Loading
Personal Weather Stations






























Interactive Weather Map New forecast layout! Learn more

10-Day Weather Forecast

Advertisements
Track Severe Weather on mobile